Portada
METAR-TAF:

METAR-TAF

Aeroports :

Concordia, Kansas, Estats Units d'Amèrica

latitud: 39-33-05N, longitud: 097-39-02W, altitud: 453 m

Observació

L'informe es va fer fa 36 minuts, a les 04:55 UTC
Vent 13 kt del Sud/Sud-Est
Temperatura 23°C
Humitat 69%
Pressió 1016 hPa
Visibilitat: 16.1 km
Escasses núvols a una alçada de 4100 ft

METAR: KCNK 200455Z AUTO 15013KT 10SM FEW041 23/17 A3001 RMK AO2 RAB29E39 SLP145 P0000 T02330167

Hora: 00:31 (05:31 UTC)


TAF: manca

Observacions i pronòstics meteorològics de més de 4000 aeroports (METAR i TAF).

Les estacions disponibles són els punts grocs i vermells al mapa.

Posi el ratolí al punt desitjat per veure el nom de l'estació.

Feu clic per veure les observacions i els pronòstics meteorològics.

Per canviar el mapa: feu clic els botons verds amb una creu de color negre per apropar; al botó verd amb un guió per allunyar la imatge; o en les fletxes verdes per a mapes adjacents.


METAR-TAF: